sensor_id;sensor_type;location;lat;lon;timestamp;noise_LAeq;noise_LA_min;noise_LA_max;noise_LA01;noise_LA95
58197;Laerm;43999;51.660;5.616;2023-05-07T00:00:59;58.40;43.09;74.20;;
58197;Laerm;43999;51.660;5.616;2023-05-07T00:03:27;51.41;42.03;64.78;;
58197;Laerm;43999;51.660;5.616;2023-05-07T00:05:55;50.02;40.89;64.12;;
58197;Laerm;43999;51.660;5.616;2023-05-07T00:08:23;52.32;41.61;65.35;;
58197;Laerm;43999;51.660;5.616;2023-05-07T00:10:50;45.45;40.98;60.22;;
58197;Laerm;43999;51.660;5.616;2023-05-07T00:13:18;50.56;40.53;63.89;;
58197;Laerm;43999;51.660;5.616;2023-05-07T00:15:45;50.14;40.89;62.04;;
58197;Laerm;43999;51.660;5.616;2023-05-07T00:18:12;54.94;40.98;75.12;;
58197;Laerm;43999;51.660;5.616;2023-05-07T00:20:40;43.21;40.36;47.91;;
58197;Laerm;43999;51.660;5.616;2023-05-07T00:23:08;52.52;40.98;67.67;;
58197;Laerm;43999;51.660;5.616;2023-05-07T00:25:36;54.20;40.89;71.13;;
58197;Laerm;43999;51.660;5.616;2023-05-07T00:28:03;56.57;41.96;71.18;;
58197;Laerm;43999;51.660;5.616;2023-05-07T00:30:31;56.01;40.33;73.45;;
58197;Laerm;43999;51.660;5.616;2023-05-07T00:32:58;50.82;40.80;64.60;;
58197;Laerm;43999;51.660;5.616;2023-05-07T00:35:26;57.62;40.53;72.35;;
58197;Laerm;43999;51.660;5.616;2023-05-07T00:37:55;55.06;40.43;67.75;;
58197;Laerm;43999;51.660;5.616;2023-05-07T00:40:23;52.93;41.53;70.00;;
58197;Laerm;43999;51.660;5.616;2023-05-07T00:42:51;55.91;40.98;72.42;;
58197;Laerm;43999;51.660;5.616;2023-05-07T00:45:27;54.10;41.68;67.75;;
58197;Laerm;43999;51.660;5.616;2023-05-07T00:48:02;53.78;40.89;67.42;;
58197;Laerm;43999;51.660;5.616;2023-05-07T00:50:30;52.98;40.89;69.08;;
58197;Laerm;43999;51.660;5.616;2023-05-07T00:52:59;55.62;41.22;68.15;;
58197;Laerm;43999;51.660;5.616;2023-05-07T00:55:27;48.61;40.13;63.20;;
58197;Laerm;43999;51.660;5.616;2023-05-07T00:57:55;51.70;39.92;64.74;;
58197;Laerm;43999;51.660;5.616;2023-05-07T01:00:23;47.39;41.46;59.24;;
58197;Laerm;43999;51.660;5.616;2023-05-07T01:02:53;50.85;40.13;64.76;;
58197;Laerm;43999;51.660;5.616;2023-05-07T01:05:23;48.19;40.03;60.75;;
58197;Laerm;43999;51.660;5.616;2023-05-07T01:07:54;53.59;39.92;68.59;;
58197;Laerm;43999;51.660;5.616;2023-05-07T01:10:23;55.17;40.98;68.32;;
58197;Laerm;43999;51.660;5.616;2023-05-07T01:12:52;48.13;40.03;63.93;;
58197;Laerm;43999;51.660;5.616;2023-05-07T01:15:21;48.73;39.46;62.76;;
58197;Laerm;43999;51.660;5.616;2023-05-07T01:17:51;52.00;40.89;65.39;;
58197;Laerm;43999;51.660;5.616;2023-05-07T01:20:28;52.09;39.46;66.03;;
58197;Laerm;43999;51.660;5.616;2023-05-07T01:23:00;52.34;40.33;68.29;;
58197;Laerm;43999;51.660;5.616;2023-05-07T01:25:29;56.11;40.89;72.70;;
58197;Laerm;43999;51.660;5.616;2023-05-07T01:28:00;49.64;39.92;66.25;;
58197;Laerm;43999;51.660;5.616;2023-05-07T01:30:32;48.23;39.92;63.30;;
58197;Laerm;43999;51.660;5.616;2023-05-07T01:33:11;43.46;39.81;54.97;;
58197;Laerm;43999;51.660;5.616;2023-05-07T01:35:45;53.49;40.53;68.26;;
58197;Laerm;43999;51.660;5.616;2023-05-07T01:38:15;50.46;40.03;73.87;;
58197;Laerm;43999;51.660;5.616;2023-05-07T01:40:43;49.56;40.33;64.72;;
58197;Laerm;43999;51.660;5.616;2023-05-07T01:43:11;53.65;39.92;70.94;;
58197;Laerm;43999;51.660;5.616;2023-05-07T01:45:41;55.20;40.23;69.94;;
58197;Laerm;43999;51.660;5.616;2023-05-07T01:48:11;47.18;39.58;66.77;;
58197;Laerm;43999;51.660;5.616;2023-05-07T01:50:41;55.88;40.80;71.48;;
58197;Laerm;43999;51.660;5.616;2023-05-07T01:53:10;50.75;40.13;66.45;;
58197;Laerm;43999;51.660;5.616;2023-05-07T01:55:37;50.27;39.99;65.55;;
58197;Laerm;43999;51.660;5.616;2023-05-07T01:58:04;56.99;40.13;73.48;;
58197;Laerm;43999;51.660;5.616;2023-05-07T02:00:32;51.08;39.46;68.48;;
58197;Laerm;43999;51.660;5.616;2023-05-07T02:02:59;53.74;41.53;68.77;;
58197;Laerm;43999;51.660;5.616;2023-05-07T02:05:41;47.84;39.92;63.76;;
58197;Laerm;43999;51.660;5.616;2023-05-07T02:08:15;52.70;40.80;70.23;;
58197;Laerm;43999;51.660;5.616;2023-05-07T02:10:42;54.80;40.80;69.48;;
58197;Laerm;43999;51.660;5.616;2023-05-07T02:13:09;52.04;40.53;66.71;;
58197;Laerm;43999;51.660;5.616;2023-05-07T02:15:37;46.57;40.53;60.48;;
58197;Laerm;43999;51.660;5.616;2023-05-07T02:18:08;59.86;39.34;84.75;;
58197;Laerm;43999;51.660;5.616;2023-05-07T02:20:37;58.03;40.43;82.00;;
58197;Laerm;43999;51.660;5.616;2023-05-07T02:23:04;54.83;40.23;73.86;;
58197;Laerm;43999;51.660;5.616;2023-05-07T02:25:31;51.35;39.81;65.04;;
58197;Laerm;43999;51.660;5.616;2023-05-07T02:28:00;49.66;40.62;66.90;;
58197;Laerm;43999;51.660;5.616;2023-05-07T02:30:53;58.33;40.71;81.33;;
58197;Laerm;43999;51.660;5.616;2023-05-07T02:33:20;50.65;40.33;68.10;;
58197;Laerm;43999;51.660;5.616;2023-05-07T02:35:48;54.08;40.80;77.35;;
58197;Laerm;43999;51.660;5.616;2023-05-07T02:38:16;42.89;40.62;54.94;;
58197;Laerm;43999;51.660;5.616;2023-05-07T02:40:43;50.69;40.80;66.25;;
58197;Laerm;43999;51.660;5.616;2023-05-07T02:43:11;51.95;40.43;66.43;;
58197;Laerm;43999;51.660;5.616;2023-05-07T02:45:42;43.67;40.71;53.97;;
58197;Laerm;43999;51.660;5.616;2023-05-07T02:48:11;46.39;40.98;58.65;;
58197;Laerm;43999;51.660;5.616;2023-05-07T02:50:39;51.26;41.30;67.13;;
58197;Laerm;43999;51.660;5.616;2023-05-07T02:53:06;46.42;40.53;59.89;;
58197;Laerm;43999;51.660;5.616;2023-05-07T02:55:33;45.15;40.89;55.35;;
58197;Laerm;43999;51.660;5.616;2023-05-07T02:58:01;47.90;40.71;63.31;;
58197;Laerm;43999;51.660;5.616;2023-05-07T03:00:31;44.56;41.03;56.48;;
58197;Laerm;43999;51.660;5.616;2023-05-07T03:03:18;46.39;40.98;59.15;;
58197;Laerm;43999;51.660;5.616;2023-05-07T03:05:45;51.37;41.53;66.87;;
58197;Laerm;43999;51.660;5.616;2023-05-07T03:08:13;48.45;41.53;62.48;;
58197;Laerm;43999;51.660;5.616;2023-05-07T03:10:40;51.24;42.64;68.93;;
58197;Laerm;43999;51.660;5.616;2023-05-07T03:13:07;49.54;41.22;63.44;;
58197;Laerm;43999;51.660;5.616;2023-05-07T03:15:35;47.51;41.53;61.83;;
58197;Laerm;43999;51.660;5.616;2023-05-07T03:18:02;44.65;41.38;55.11;;
58197;Laerm;43999;51.660;5.616;2023-05-07T03:20:30;44.50;41.46;52.16;;
58197;Laerm;43999;51.660;5.616;2023-05-07T03:22:57;59.29;41.30;79.13;;
58197;Laerm;43999;51.660;5.616;2023-05-07T03:25:25;46.84;41.38;58.54;;
58197;Laerm;43999;51.660;5.616;2023-05-07T03:27:53;52.37;41.75;65.26;;
58197;Laerm;43999;51.660;5.616;2023-05-07T03:30:24;45.19;41.46;65.08;;
58197;Laerm;43999;51.660;5.616;2023-05-07T03:32:51;44.97;41.61;54.26;;
58197;Laerm;43999;51.660;5.616;2023-05-07T03:35:23;46.19;41.68;55.44;;
58197;Laerm;43999;51.660;5.616;2023-05-07T03:37:51;43.88;40.79;52.58;;
58197;Laerm;43999;51.660;5.616;2023-05-07T03:40:20;53.27;41.61;65.98;;
58197;Laerm;43999;51.660;5.616;2023-05-07T03:42:51;51.30;41.14;63.01;;
58197;Laerm;43999;51.660;5.616;2023-05-07T03:45:28;44.89;40.43;54.27;;
58197;Laerm;43999;51.660;5.616;2023-05-07T03:48:07;47.85;41.22;58.98;;
58197;Laerm;43999;51.660;5.616;2023-05-07T03:50:35;48.98;40.80;64.46;;
58197;Laerm;43999;51.660;5.616;2023-05-07T03:53:07;54.27;41.38;70.35;;
58197;Laerm;43999;51.660;5.616;2023-05-07T03:55:38;44.61;41.30;60.20;;
58197;Laerm;43999;51.660;5.616;2023-05-07T03:58:06;51.56;41.46;66.18;;
58197;Laerm;43999;51.660;5.616;2023-05-07T04:00:33;45.21;42.09;59.10;;
58197;Laerm;43999;51.660;5.616;2023-05-07T04:03:14;47.75;41.82;57.93;;
58197;Laerm;43999;51.660;5.616;2023-05-07T04:05:41;47.74;41.61;61.34;;
58197;Laerm;43999;51.660;5.616;2023-05-07T04:08:09;45.68;41.14;57.76;;
58197;Laerm;43999;51.660;5.616;2023-05-07T04:10:42;52.99;40.89;70.72;;
58197;Laerm;43999;51.660;5.616;2023-05-07T04:13:10;47.39;41.06;62.42;;
58197;Laerm;43999;51.660;5.616;2023-05-07T04:15:38;46.87;41.38;55.90;;
58197;Laerm;43999;51.660;5.616;2023-05-07T04:18:18;52.73;41.46;66.71;;
58197;Laerm;43999;51.660;5.616;2023-05-07T04:20:48;45.46;41.14;63.59;;
58197;Laerm;43999;51.660;5.616;2023-05-07T04:23:19;44.39;40.80;56.23;;
58197;Laerm;43999;51.660;5.616;2023-05-07T04:25:46;52.01;41.22;65.83;;
58197;Laerm;43999;51.660;5.616;2023-05-07T04:28:22;50.71;41.06;64.79;;
58197;Laerm;43999;51.660;5.616;2023-05-07T04:30:50;51.06;40.13;67.10;;
58197;Laerm;43999;51.660;5.616;2023-05-07T04:33:18;52.16;41.30;69.29;;
58197;Laerm;43999;51.660;5.616;2023-05-07T04:35:47;43.46;40.53;58.10;;
58197;Laerm;43999;51.660;5.616;2023-05-07T04:38:15;53.76;40.62;69.00;;
58197;Laerm;43999;51.660;5.616;2023-05-07T04:40:42;52.98;41.61;68.14;;
58197;Laerm;43999;51.660;5.616;2023-05-07T04:43:13;55.77;41.96;69.64;;
58197;Laerm;43999;51.660;5.616;2023-05-07T04:45:46;47.84;41.38;59.15;;
58197;Laerm;43999;51.660;5.616;2023-05-07T04:48:13;46.61;41.14;65.60;;
58197;Laerm;43999;51.660;5.616;2023-05-07T04:50:42;56.32;41.26;70.89;;
58197;Laerm;43999;51.660;5.616;2023-05-07T04:53:12;58.18;42.47;73.31;;
58197;Laerm;43999;51.660;5.616;2023-05-07T04:55:39;53.68;41.22;67.45;;
58197;Laerm;43999;51.660;5.616;2023-05-07T04:58:07;49.36;40.71;65.67;;
58197;Laerm;43999;51.660;5.616;2023-05-07T05:00:36;53.02;41.22;65.78;;
58197;Laerm;43999;51.660;5.616;2023-05-07T05:03:09;48.36;41.61;64.77;;
58197;Laerm;43999;51.660;5.616;2023-05-07T05:05:38;61.56;42.93;77.12;;
58197;Laerm;43999;51.660;5.616;2023-05-07T05:08:06;51.86;41.61;72.79;;
58197;Laerm;43999;51.660;5.616;2023-05-07T05:10:36;54.72;41.46;77.91;;
58197;Laerm;43999;51.660;5.616;2023-05-07T05:13:06;51.22;41.22;64.25;;
58197;Laerm;43999;51.660;5.616;2023-05-07T05:15:35;56.01;42.29;68.36;;
58197;Laerm;43999;51.660;5.616;2023-05-07T05:18:02;56.62;41.89;78.09;;
58197;Laerm;43999;51.660;5.616;2023-05-07T05:20:30;49.79;41.38;64.24;;
58197;Laerm;43999;51.660;5.616;2023-05-07T05:22:58;52.29;41.61;67.32;;
58197;Laerm;43999;51.660;5.616;2023-05-07T05:25:25;55.88;41.46;71.10;;
58197;Laerm;43999;51.660;5.616;2023-05-07T05:27:53;47.29;40.62;59.04;;
58197;Laerm;43999;51.660;5.616;2023-05-07T05:30:20;55.40;41.22;71.92;;
58197;Laerm;43999;51.660;5.616;2023-05-07T05:32:49;49.06;41.06;64.52;;
58197;Laerm;43999;51.660;5.616;2023-05-07T05:35:16;49.77;41.48;66.78;;
58197;Laerm;43999;51.660;5.616;2023-05-07T05:37:44;45.12;41.06;54.23;;
58197;Laerm;43999;51.660;5.616;2023-05-07T05:40:13;48.17;41.53;62.81;;
58197;Laerm;43999;51.660;5.616;2023-05-07T05:42:40;50.80;41.68;73.90;;
58197;Laerm;43999;51.660;5.616;2023-05-07T05:45:09;52.90;41.14;70.14;;
58197;Laerm;43999;51.660;5.616;2023-05-07T05:47:38;50.62;42.29;63.90;;
58197;Laerm;43999;51.660;5.616;2023-05-07T05:50:08;50.70;41.53;65.59;;
58197;Laerm;43999;51.660;5.616;2023-05-07T05:52:36;56.76;42.65;74.06;;
58197;Laerm;43999;51.660;5.616;2023-05-07T05:55:05;55.18;41.19;67.55;;
58197;Laerm;43999;51.660;5.616;2023-05-07T05:57:34;51.79;40.43;68.01;;
58197;Laerm;43999;51.660;5.616;2023-05-07T06:00:02;51.05;41.46;67.16;;
58197;Laerm;43999;51.660;5.616;2023-05-07T06:02:33;46.02;41.30;54.91;;
58197;Laerm;43999;51.660;5.616;2023-05-07T06:05:00;55.75;42.29;67.92;;
58197;Laerm;43999;51.660;5.616;2023-05-07T06:07:28;54.21;40.89;66.05;;
58197;Laerm;43999;51.660;5.616;2023-05-07T06:09:55;54.93;40.62;68.78;;
58197;Laerm;43999;51.660;5.616;2023-05-07T06:12:23;45.64;40.62;61.47;;
58197;Laerm;43999;51.660;5.616;2023-05-07T06:14:50;51.49;41.22;66.81;;
58197;Laerm;43999;51.660;5.616;2023-05-07T06:17:17;53.52;41.30;66.12;;
58197;Laerm;43999;51.660;5.616;2023-05-07T06:19:49;50.37;40.80;64.81;;
58197;Laerm;43999;51.660;5.616;2023-05-07T06:22:19;49.56;41.14;63.32;;
58197;Laerm;43999;51.660;5.616;2023-05-07T06:24:46;50.38;41.14;64.33;;
58197;Laerm;43999;51.660;5.616;2023-05-07T06:27:14;56.47;41.22;67.42;;
58197;Laerm;43999;51.660;5.616;2023-05-07T06:29:41;53.45;41.89;71.46;;
58197;Laerm;43999;51.660;5.616;2023-05-07T06:32:14;50.01;41.22;63.46;;
58197;Laerm;43999;51.660;5.616;2023-05-07T06:34:43;60.91;42.09;79.69;;
58197;Laerm;43999;51.660;5.616;2023-05-07T06:37:11;53.75;42.29;63.74;;
58197;Laerm;43999;51.660;5.616;2023-05-07T06:40:09;55.24;42.41;66.25;;
58197;Laerm;43999;51.660;5.616;2023-05-07T06:42:39;56.93;42.82;72.78;;
58197;Laerm;43999;51.660;5.616;2023-05-07T06:45:27;49.73;40.89;62.78;;
58197;Laerm;43999;51.660;5.616;2023-05-07T06:47:57;55.96;41.68;67.89;;
58197;Laerm;43999;51.660;5.616;2023-05-07T06:50:26;56.77;43.49;65.98;;
58197;Laerm;43999;51.660;5.616;2023-05-07T06:52:56;59.09;42.00;72.81;;
58197;Laerm;43999;51.660;5.616;2023-05-07T06:55:25;57.90;41.53;70.28;;
58197;Laerm;43999;51.660;5.616;2023-05-07T06:57:53;58.29;43.29;72.73;;
58197;Laerm;43999;51.660;5.616;2023-05-07T07:00:22;54.64;43.09;66.28;;
58197;Laerm;43999;51.660;5.616;2023-05-07T07:02:55;58.45;42.65;68.20;;
58197;Laerm;43999;51.660;5.616;2023-05-07T07:05:26;54.28;43.34;65.91;;
58197;Laerm;43999;51.660;5.616;2023-05-07T07:07:54;57.26;45.94;66.31;;
58197;Laerm;43999;51.660;5.616;2023-05-07T07:10:23;57.66;42.16;73.25;;
58197;Laerm;43999;51.660;5.616;2023-05-07T07:12:51;57.08;44.07;68.70;;
58197;Laerm;43999;51.660;5.616;2023-05-07T07:15:21;57.56;42.09;70.07;;
58197;Laerm;43999;51.660;5.616;2023-05-07T07:17:49;55.02;42.88;71.44;;
58197;Laerm;43999;51.660;5.616;2023-05-07T07:20:18;54.91;41.53;68.68;;
58197;Laerm;43999;51.660;5.616;2023-05-07T07:22:46;61.02;45.04;77.88;;
58197;Laerm;43999;51.660;5.616;2023-05-07T07:25:15;57.67;43.72;73.21;;
58197;Laerm;43999;51.660;5.616;2023-05-07T07:27:43;58.93;45.88;74.04;;
58197;Laerm;43999;51.660;5.616;2023-05-07T07:30:11;58.34;44.87;69.44;;
58197;Laerm;43999;51.660;5.616;2023-05-07T07:32:41;57.11;43.44;72.95;;
58197;Laerm;43999;51.660;5.616;2023-05-07T07:35:10;58.85;43.90;70.59;;
58197;Laerm;43999;51.660;5.616;2023-05-07T07:37:38;58.99;47.38;74.64;;
58197;Laerm;43999;51.660;5.616;2023-05-07T07:40:07;59.68;47.79;70.62;;
58197;Laerm;43999;51.660;5.616;2023-05-07T07:42:36;59.32;45.80;71.74;;
58197;Laerm;43999;51.660;5.616;2023-05-07T07:45:04;58.52;45.30;74.38;;
58197;Laerm;43999;51.660;5.616;2023-05-07T07:47:35;59.15;46.82;68.89;;
58197;Laerm;43999;51.660;5.616;2023-05-07T07:50:02;62.07;46.55;76.09;;
58197;Laerm;43999;51.660;5.616;2023-05-07T07:52:32;60.32;44.90;73.15;;
58197;Laerm;43999;51.660;5.616;2023-05-07T07:55:00;62.73;49.78;73.91;;
58197;Laerm;43999;51.660;5.616;2023-05-07T07:57:27;59.77;47.48;72.44;;
58197;Laerm;43999;51.660;5.616;2023-05-07T07:59:56;62.38;46.40;75.83;;
58197;Laerm;43999;51.660;5.616;2023-05-07T08:02:24;60.85;45.48;78.67;;
58197;Laerm;43999;51.660;5.616;2023-05-07T08:04:51;58.13;46.29;70.10;;
58197;Laerm;43999;51.660;5.616;2023-05-07T08:07:19;61.03;49.34;70.54;;
58197;Laerm;43999;51.660;5.616;2023-05-07T08:09:48;61.91;45.77;85.61;;
58197;Laerm;43999;51.660;5.616;2023-05-07T08:12:20;59.62;45.89;73.96;;
58197;Laerm;43999;51.660;5.616;2023-05-07T08:14:48;60.44;48.78;70.86;;
58197;Laerm;43999;51.660;5.616;2023-05-07T08:17:16;61.18;50.68;70.24;;
58197;Laerm;43999;51.660;5.616;2023-05-07T08:19:45;60.90;48.91;72.58;;
58197;Laerm;43999;51.660;5.616;2023-05-07T08:22:14;60.77;47.59;69.91;;
58197;Laerm;43999;51.660;5.616;2023-05-07T08:24:42;60.72;49.17;71.53;;
58197;Laerm;43999;51.660;5.616;2023-05-07T08:27:11;62.42;49.30;73.90;;
58197;Laerm;43999;51.660;5.616;2023-05-07T08:29:41;59.33;45.80;69.49;;
58197;Laerm;43999;51.660;5.616;2023-05-07T08:32:08;60.07;49.16;70.14;;
58197;Laerm;43999;51.660;5.616;2023-05-07T08:34:35;58.93;48.28;65.82;;
58197;Laerm;43999;51.660;5.616;2023-05-07T08:37:05;57.92;48.31;74.49;;
58197;Laerm;43999;51.660;5.616;2023-05-07T08:39:33;59.79;44.07;71.36;;
58197;Laerm;43999;51.660;5.616;2023-05-07T08:42:03;60.93;50.60;69.95;;
58197;Laerm;43999;51.660;5.616;2023-05-07T08:44:34;62.20;48.57;73.36;;
58197;Laerm;43999;51.660;5.616;2023-05-07T08:47:06;61.08;47.28;71.29;;
58197;Laerm;43999;51.660;5.616;2023-05-07T08:49:35;60.39;48.87;70.45;;
58197;Laerm;43999;51.660;5.616;2023-05-07T08:52:04;61.43;46.87;72.84;;
58197;Laerm;43999;51.660;5.616;2023-05-07T08:54:37;61.07;51.22;73.46;;
58197;Laerm;43999;51.660;5.616;2023-05-07T08:57:06;60.86;48.87;72.90;;
58197;Laerm;43999;51.660;5.616;2023-05-07T08:59:35;62.26;48.49;73.34;;
58197;Laerm;43999;51.660;5.616;2023-05-07T09:02:09;60.23;48.67;79.26;;
58197;Laerm;43999;51.660;5.616;2023-05-07T09:04:39;59.48;48.39;68.34;;
58197;Laerm;43999;51.660;5.616;2023-05-07T09:07:07;68.88;48.63;92.01;;
58197;Laerm;43999;51.660;5.616;2023-05-07T09:09:40;62.22;51.62;72.94;;
58197;Laerm;43999;51.660;5.616;2023-05-07T09:12:08;60.48;47.22;75.52;;
58197;Laerm;43999;51.660;5.616;2023-05-07T09:14:38;61.09;46.76;69.79;;
58197;Laerm;43999;51.660;5.616;2023-05-07T09:17:06;61.94;47.54;79.57;;
58197;Laerm;43999;51.660;5.616;2023-05-07T09:19:33;61.65;51.33;75.61;;
58197;Laerm;43999;51.660;5.616;2023-05-07T09:22:05;61.41;46.97;77.58;;
58197;Laerm;43999;51.660;5.616;2023-05-07T09:24:51;60.43;45.80;74.52;;
58197;Laerm;43999;51.660;5.616;2023-05-07T09:27:22;61.96;52.13;71.27;;
58197;Laerm;43999;51.660;5.616;2023-05-07T09:29:50;61.47;50.95;74.70;;
58197;Laerm;43999;51.660;5.616;2023-05-07T09:32:18;59.62;47.77;73.39;;
58197;Laerm;43999;51.660;5.616;2023-05-07T09:34:45;81.54;46.35;100.15;;
58197;Laerm;43999;51.660;5.616;2023-05-07T09:37:16;61.92;48.00;72.48;;
58197;Laerm;43999;51.660;5.616;2023-05-07T09:39:49;61.82;51.22;72.64;;
58197;Laerm;43999;51.660;5.616;2023-05-07T09:42:24;62.26;49.11;73.80;;
58197;Laerm;43999;51.660;5.616;2023-05-07T09:44:56;62.08;47.91;74.10;;
58197;Laerm;43999;51.660;5.616;2023-05-07T09:47:32;61.83;51.18;71.05;;
58197;Laerm;43999;51.660;5.616;2023-05-07T09:50:05;59.86;48.42;69.38;;
58197;Laerm;43999;51.660;5.616;2023-05-07T09:52:41;59.74;48.23;73.05;;
58197;Laerm;43999;51.660;5.616;2023-05-07T09:55:11;62.19;52.96;71.24;;
58197;Laerm;43999;51.660;5.616;2023-05-07T09:57:41;62.44;47.90;78.64;;
58197;Laerm;43999;51.660;5.616;2023-05-07T10:00:12;62.55;49.41;71.88;;
58197;Laerm;43999;51.660;5.616;2023-05-07T10:03:00;59.89;49.41;71.90;;
58197;Laerm;43999;51.660;5.616;2023-05-07T10:05:37;61.74;48.87;78.08;;
58197;Laerm;43999;51.660;5.616;2023-05-07T10:08:08;62.66;51.98;71.99;;
58197;Laerm;43999;51.660;5.616;2023-05-07T10:10:39;60.88;48.15;68.31;;
58197;Laerm;43999;51.660;5.616;2023-05-07T10:13:10;62.12;49.87;73.96;;
58197;Laerm;43999;51.660;5.616;2023-05-07T10:15:43;62.63;51.02;76.13;;
58197;Laerm;43999;51.660;5.616;2023-05-07T10:18:13;61.27;48.95;70.21;;
58197;Laerm;43999;51.660;5.616;2023-05-07T10:20:46;61.16;50.56;72.65;;
58197;Laerm;43999;51.660;5.616;2023-05-07T10:23:23;61.16;47.40;69.58;;
58197;Laerm;43999;51.660;5.616;2023-05-07T10:26:06;61.39;49.19;77.18;;
58197;Laerm;43999;51.660;5.616;2023-05-07T10:28:43;60.99;48.28;76.02;;
58197;Laerm;43999;51.660;5.616;2023-05-07T10:34:47;62.53;50.92;73.43;;
58197;Laerm;43999;51.660;5.616;2023-05-07T10:37:18;61.97;53.93;69.50;;
58197;Laerm;43999;51.660;5.616;2023-05-07T10:39:49;61.60;52.45;74.07;;
58197;Laerm;43999;51.660;5.616;2023-05-07T10:42:18;60.61;49.58;75.36;;
58197;Laerm;43999;51.660;5.616;2023-05-07T10:44:50;64.34;51.83;83.80;;
58197;Laerm;43999;51.660;5.616;2023-05-07T10:47:30;62.79;50.81;76.81;;
58197;Laerm;43999;51.660;5.616;2023-05-07T10:52:40;61.62;52.23;76.60;;
58197;Laerm;43999;51.660;5.616;2023-05-07T10:55:35;61.90;51.31;70.34;;
58197;Laerm;43999;51.660;5.616;2023-05-07T10:58:29;64.82;53.65;79.72;;
58197;Laerm;43999;51.660;5.616;2023-05-07T11:04:25;61.83;54.79;71.61;;
58197;Laerm;43999;51.660;5.616;2023-05-07T11:07:28;63.64;49.72;80.16;;
58197;Laerm;43999;51.660;5.616;2023-05-07T11:10:07;61.65;50.56;84.93;;
58197;Laerm;43999;51.660;5.616;2023-05-07T11:12:52;60.08;51.19;68.79;;
58197;Laerm;43999;51.660;5.616;2023-05-07T11:15:46;61.74;51.36;78.40;;
58197;Laerm;43999;51.660;5.616;2023-05-07T11:18:23;62.84;54.36;77.29;;
58197;Laerm;43999;51.660;5.616;2023-05-07T11:20:59;63.83;52.07;74.98;;
58197;Laerm;43999;51.660;5.616;2023-05-07T11:23:55;62.66;51.75;72.53;;
58197;Laerm;43999;51.660;5.616;2023-05-07T11:26:44;62.07;49.82;78.17;;
58197;Laerm;43999;51.660;5.616;2023-05-07T11:29:20;64.48;52.00;74.82;;
58197;Laerm;43999;51.660;5.616;2023-05-07T11:31:55;62.71;52.00;75.42;;
58197;Laerm;43999;51.660;5.616;2023-05-07T11:34:53;62.20;52.75;75.58;;
58197;Laerm;43999;51.660;5.616;2023-05-07T11:37:28;64.34;53.13;73.51;;
58197;Laerm;43999;51.660;5.616;2023-05-07T11:40:08;62.95;50.76;77.12;;
58197;Laerm;43999;51.660;5.616;2023-05-07T11:42:41;62.45;52.99;82.16;;
58197;Laerm;43999;51.660;5.616;2023-05-07T11:45:10;62.89;48.21;75.16;;
58197;Laerm;43999;51.660;5.616;2023-05-07T11:47:42;62.50;50.01;69.76;;
58197;Laerm;43999;51.660;5.616;2023-05-07T11:50:11;64.84;54.20;77.20;;
58197;Laerm;43999;51.660;5.616;2023-05-07T11:52:38;64.88;53.25;76.44;;
58197;Laerm;43999;51.660;5.616;2023-05-07T11:55:08;62.88;52.62;80.51;;
58197;Laerm;43999;51.660;5.616;2023-05-07T11:57:35;62.81;53.46;71.56;;
58197;Laerm;43999;51.660;5.616;2023-05-07T12:00:03;63.17;53.05;74.42;;
58197;Laerm;43999;51.660;5.616;2023-05-07T12:02:40;62.67;51.09;74.34;;
58197;Laerm;43999;51.660;5.616;2023-05-07T12:05:09;62.18;49.56;74.28;;
58197;Laerm;43999;51.660;5.616;2023-05-07T12:07:37;64.48;54.43;79.96;;
58197;Laerm;43999;51.660;5.616;2023-05-07T12:10:06;63.40;52.24;76.21;;
58197;Laerm;43999;51.660;5.616;2023-05-07T12:12:40;63.43;54.54;75.55;;
58197;Laerm;43999;51.660;5.616;2023-05-07T12:15:10;60.42;50.85;73.79;;
58197;Laerm;43999;51.660;5.616;2023-05-07T12:17:39;64.12;51.50;75.34;;
58197;Laerm;43999;51.660;5.616;2023-05-07T12:20:09;61.45;51.28;74.68;;
58197;Laerm;43999;51.660;5.616;2023-05-07T12:22:38;63.68;51.28;78.49;;
58197;Laerm;43999;51.660;5.616;2023-05-07T12:25:06;65.22;55.49;78.74;;
58197;Laerm;43999;51.660;5.616;2023-05-07T12:27:42;62.68;52.89;79.42;;
58197;Laerm;43999;51.660;5.616;2023-05-07T12:30:11;60.71;51.06;85.70;;
58197;Laerm;43999;51.660;5.616;2023-05-07T12:32:39;62.20;52.57;80.59;;
58197;Laerm;43999;51.660;5.616;2023-05-07T12:35:07;64.04;53.84;77.84;;
58197;Laerm;43999;51.660;5.616;2023-05-07T12:37:37;61.57;52.55;72.36;;
58197;Laerm;43999;51.660;5.616;2023-05-07T12:40:08;61.53;54.45;76.00;;
58197;Laerm;43999;51.660;5.616;2023-05-07T12:42:39;63.49;53.61;77.24;;
58197;Laerm;43999;51.660;5.616;2023-05-07T12:45:16;63.14;50.02;81.15;;
58197;Laerm;43999;51.660;5.616;2023-05-07T12:47:45;60.81;49.92;72.24;;
58197;Laerm;43999;51.660;5.616;2023-05-07T12:50:16;67.26;57.41;84.17;;
58197;Laerm;43999;51.660;5.616;2023-05-07T12:52:47;61.51;52.26;76.72;;
58197;Laerm;43999;51.660;5.616;2023-05-07T12:55:16;65.28;51.56;80.74;;
58197;Laerm;43999;51.660;5.616;2023-05-07T12:57:49;62.56;50.36;75.25;;
58197;Laerm;43999;51.660;5.616;2023-05-07T13:00:38;64.38;53.48;78.07;;
58197;Laerm;43999;51.660;5.616;2023-05-07T13:03:05;60.87;50.18;68.98;;
58197;Laerm;43999;51.660;5.616;2023-05-07T13:05:33;63.65;50.38;77.92;;
58197;Laerm;43999;51.660;5.616;2023-05-07T13:08:00;65.65;50.07;81.36;;
58197;Laerm;43999;51.660;5.616;2023-05-07T13:10:28;62.74;49.59;77.90;;
58197;Laerm;43999;51.660;5.616;2023-05-07T13:12:55;62.89;51.68;74.21;;
58197;Laerm;43999;51.660;5.616;2023-05-07T13:15:23;63.25;50.72;75.64;;
58197;Laerm;43999;51.660;5.616;2023-05-07T13:17:50;62.08;50.46;74.18;;
58197;Laerm;43999;51.660;5.616;2023-05-07T13:20:17;63.91;52.71;75.98;;
58197;Laerm;43999;51.660;5.616;2023-05-07T13:22:47;62.14;49.06;71.20;;
58197;Laerm;43999;51.660;5.616;2023-05-07T13:25:16;64.13;52.44;80.43;;
58197;Laerm;43999;51.660;5.616;2023-05-07T13:27:44;59.99;51.40;72.17;;
58197;Laerm;43999;51.660;5.616;2023-05-07T13:30:15;61.43;51.82;71.36;;
58197;Laerm;43999;51.660;5.616;2023-05-07T13:33:04;62.46;49.95;87.99;;
58197;Laerm;43999;51.660;5.616;2023-05-07T13:35:32;63.51;50.84;87.15;;
58197;Laerm;43999;51.660;5.616;2023-05-07T13:38:04;66.74;52.24;82.90;;
58197;Laerm;43999;51.660;5.616;2023-05-07T13:40:32;65.47;52.70;86.28;;
58197;Laerm;43999;51.660;5.616;2023-05-07T13:43:00;63.66;50.92;80.85;;
58197;Laerm;43999;51.660;5.616;2023-05-07T13:45:31;70.33;53.45;93.81;;
58197;Laerm;43999;51.660;5.616;2023-05-07T13:48:00;68.02;52.97;89.37;;
58197;Laerm;43999;51.660;5.616;2023-05-07T13:50:27;71.40;55.17;88.09;;
58197;Laerm;43999;51.660;5.616;2023-05-07T13:52:57;61.39;51.64;70.47;;
58197;Laerm;43999;51.660;5.616;2023-05-07T13:55:25;62.68;53.31;73.50;;
58197;Laerm;43999;51.660;5.616;2023-05-07T13:58:01;65.40;51.16;82.94;;
58197;Laerm;43999;51.660;5.616;2023-05-07T14:00:33;64.06;55.47;75.51;;
58197;Laerm;43999;51.660;5.616;2023-05-07T14:03:00;68.08;53.38;84.45;;
58197;Laerm;43999;51.660;5.616;2023-05-07T14:05:28;67.68;57.34;85.39;;
58197;Laerm;43999;51.660;5.616;2023-05-07T14:08:00;69.88;61.36;79.67;;
58197;Laerm;43999;51.660;5.616;2023-05-07T14:10:28;72.98;62.02;81.84;;
58197;Laerm;43999;51.660;5.616;2023-05-07T14:12:56;73.33;63.66;83.72;;